sensor_id;sensor_type;location;lat;lon;timestamp;pressure;altitude;pressure_sealevel;temperature;humidity
63204;BME280;49297;43.210;27.914;2022-12-29T00:01:40;102477.72;;;3.88;66.37
63204;BME280;49297;43.210;27.914;2022-12-29T00:04:06;102483.97;;;3.84;66.55
63204;BME280;49297;43.210;27.914;2022-12-29T00:06:32;102484.00;;;3.82;66.07
63204;BME280;49297;43.210;27.914;2022-12-29T00:08:58;102483.22;;;3.80;66.12
63204;BME280;49297;43.210;27.914;2022-12-29T00:11:27;102471.06;;;3.77;66.44
63204;BME280;49297;43.210;27.914;2022-12-29T00:13:53;102473.69;;;3.77;66.30
63204;BME280;49297;43.210;27.914;2022-12-29T00:16:44;102479.13;;;3.71;65.93
63204;BME280;49297;43.210;27.914;2022-12-29T00:19:11;102478.22;;;3.72;66.20
63204;BME280;49297;43.210;27.914;2022-12-29T00:21:56;102479.94;;;3.73;66.54
63204;BME280;49297;43.210;27.914;2022-12-29T00:24:41;102481.75;;;3.71;66.17
63204;BME280;49297;43.210;27.914;2022-12-29T00:27:25;102484.41;;;3.70;66.65
63204;BME280;49297;43.210;27.914;2022-12-29T00:30:12;102483.56;;;3.69;66.64
63204;BME280;49297;43.210;27.914;2022-12-29T00:32:56;102489.56;;;3.73;66.58
63204;BME280;49297;43.210;27.914;2022-12-29T00:35:46;102475.44;;;3.77;66.93
63204;BME280;49297;43.210;27.914;2022-12-29T00:38:16;102469.19;;;3.81;66.41
63204;BME280;49297;43.210;27.914;2022-12-29T00:41:00;102471.75;;;3.83;66.74
63204;BME280;49297;43.210;27.914;2022-12-29T00:43:44;102474.28;;;3.86;66.36
63204;BME280;49297;43.210;27.914;2022-12-29T00:46:29;102469.81;;;3.89;66.57
63204;BME280;49297;43.210;27.914;2022-12-29T00:48:56;102467.19;;;3.89;65.95
63204;BME280;49297;43.210;27.914;2022-12-29T00:51:40;102465.34;;;3.91;66.18
63204;BME280;49297;43.210;27.914;2022-12-29T00:54:06;102460.16;;;3.90;66.54
63204;BME280;49297;43.210;27.914;2022-12-29T00:56:32;102464.47;;;3.92;66.52
63204;BME280;49297;43.210;27.914;2022-12-29T00:59:02;102464.38;;;3.94;66.64
63204;BME280;49297;43.210;27.914;2022-12-29T01:01:29;102459.91;;;3.97;66.39
63204;BME280;49297;43.210;27.914;2022-12-29T01:03:55;102459.81;;;4.00;66.55
63204;BME280;49297;43.210;27.914;2022-12-29T01:06:21;102451.09;;;4.00;66.52
63204;BME280;49297;43.210;27.914;2022-12-29T01:08:47;102445.00;;;3.99;66.65
63204;BME280;49297;43.210;27.914;2022-12-29T01:11:33;102448.41;;;4.02;66.11
63204;BME280;49297;43.210;27.914;2022-12-29T01:13:59;102443.19;;;4.02;66.30
63204;BME280;49297;43.210;27.914;2022-12-29T01:16:25;102437.06;;;4.01;66.48
63204;BME280;49297;43.210;27.914;2022-12-29T01:18:51;102436.25;;;3.99;66.59
63204;BME280;49297;43.210;27.914;2022-12-29T01:21:17;102441.81;;;3.90;66.76
63204;BME280;49297;43.210;27.914;2022-12-29T01:23:43;102423.69;;;3.84;67.17
63204;BME280;49297;43.210;27.914;2022-12-29T01:26:13;102423.00;;;3.78;66.83
63204;BME280;49297;43.210;27.914;2022-12-29T01:28:40;102418.66;;;3.77;66.81
63204;BME280;49297;43.210;27.914;2022-12-29T01:31:11;102411.75;;;3.75;67.17
63204;BME280;49297;43.210;27.914;2022-12-29T01:33:38;102408.22;;;3.76;67.10
63204;BME280;49297;43.210;27.914;2022-12-29T01:36:09;102417.81;;;3.77;67.34
63204;BME280;49297;43.210;27.914;2022-12-29T01:38:36;102404.03;;;3.70;67.36
63204;BME280;49297;43.210;27.914;2022-12-29T01:41:03;102397.13;;;3.69;67.68
63204;BME280;49297;43.210;27.914;2022-12-29T01:46:31;102378.59;;;3.74;67.04
63204;BME280;49297;43.210;27.914;2022-12-29T01:51:41;102382.84;;;3.78;67.11
63204;BME280;49297;43.210;27.914;2022-12-29T01:54:13;102368.81;;;3.79;67.67
63204;BME280;49297;43.210;27.914;2022-12-29T01:56:42;102364.44;;;3.79;67.00
63204;BME280;49297;43.210;27.914;2022-12-29T01:59:14;102359.13;;;3.81;67.26
63204;BME280;49297;43.210;27.914;2022-12-29T02:01:41;102358.28;;;3.80;67.67
63204;BME280;49297;43.210;27.914;2022-12-29T02:04:09;102353.16;;;3.77;67.14
63204;BME280;49297;43.210;27.914;2022-12-29T02:06:41;102358.56;;;3.73;67.95
63204;BME280;49297;43.210;27.914;2022-12-29T02:09:10;102356.84;;;3.72;67.84
63204;BME280;49297;43.210;27.914;2022-12-29T02:11:37;102352.50;;;3.71;67.78
63204;BME280;49297;43.210;27.914;2022-12-29T02:14:11;102358.56;;;3.73;67.69
63204;BME280;49297;43.210;27.914;2022-12-29T02:19:52;102356.78;;;3.73;67.84
63204;BME280;49297;43.210;27.914;2022-12-29T02:22:27;102354.22;;;3.72;67.85
63204;BME280;49297;43.210;27.914;2022-12-29T02:28:25;102352.41;;;3.74;67.90
63204;BME280;49297;43.210;27.914;2022-12-29T02:36:59;102347.84;;;3.79;68.22
63204;BME280;49297;43.210;27.914;2022-12-29T02:42:30;102328.38;;;3.86;68.79
63204;BME280;49297;43.210;27.914;2022-12-29T02:50:25;102333.44;;;3.92;68.69
63204;BME280;49297;43.210;27.914;2022-12-29T02:53:05;102325.47;;;3.94;68.53
63204;BME280;49297;43.210;27.914;2022-12-29T02:55:32;102323.75;;;3.94;68.33
63204;BME280;49297;43.210;27.914;2022-12-29T02:58:24;102323.84;;;3.91;68.31
63204;BME280;49297;43.210;27.914;2022-12-29T03:08:51;102324.97;;;3.84;68.20
63204;BME280;49297;43.210;27.914;2022-12-29T03:11:19;102313.59;;;3.85;68.03
63204;BME280;49297;43.210;27.914;2022-12-29T03:17:38;102316.09;;;3.88;68.76
63204;BME280;49297;43.210;27.914;2022-12-29T03:20:08;102324.81;;;3.89;68.64
63204;BME280;49297;43.210;27.914;2022-12-29T03:22:41;102330.97;;;3.88;68.56
63204;BME280;49297;43.210;27.914;2022-12-29T03:25:13;102321.28;;;3.90;68.62
63204;BME280;49297;43.210;27.914;2022-12-29T03:27:44;102326.47;;;3.91;68.25
63204;BME280;49297;43.210;27.914;2022-12-29T03:30:11;102327.50;;;3.87;68.48
63204;BME280;49297;43.210;27.914;2022-12-29T03:32:42;102326.56;;;3.88;67.96
63204;BME280;49297;43.210;27.914;2022-12-29T03:35:11;102331.94;;;3.85;68.39
63204;BME280;49297;43.210;27.914;2022-12-29T03:37:46;102338.22;;;3.79;68.44
63204;BME280;49297;43.210;27.914;2022-12-29T03:40:16;102341.81;;;3.77;68.64
63204;BME280;49297;43.210;27.914;2022-12-29T03:42:43;102347.38;;;3.68;68.22
63204;BME280;49297;43.210;27.914;2022-12-29T03:45:10;102361.47;;;3.63;68.50
63204;BME280;49297;43.210;27.914;2022-12-29T03:47:36;102359.88;;;3.59;68.06
63204;BME280;49297;43.210;27.914;2022-12-29T03:50:02;102357.53;;;3.52;68.12
63204;BME280;49297;43.210;27.914;2022-12-29T03:52:27;102354.22;;;3.47;68.30
63204;BME280;49297;43.210;27.914;2022-12-29T03:54:53;102352.56;;;3.44;68.31
63204;BME280;49297;43.210;27.914;2022-12-29T03:57:20;102366.66;;;3.40;68.59
63204;BME280;49297;43.210;27.914;2022-12-29T03:59:46;102365.97;;;3.33;67.99
63204;BME280;49297;43.210;27.914;2022-12-29T04:02:12;102370.81;;;3.19;68.76
63204;BME280;49297;43.210;27.914;2022-12-29T04:04:37;102367.78;;;3.04;68.37
63204;BME280;49297;43.210;27.914;2022-12-29T04:07:03;102366.44;;;2.93;69.31
63204;BME280;49297;43.210;27.914;2022-12-29T04:09:29;102369.03;;;2.93;68.91
63204;BME280;49297;43.210;27.914;2022-12-29T04:11:56;102376.94;;;2.91;69.77
63204;BME280;49297;43.210;27.914;2022-12-29T04:14:22;102376.97;;;2.90;69.13
63204;BME280;49297;43.210;27.914;2022-12-29T04:16:48;102367.66;;;2.81;69.84
63204;BME280;49297;43.210;27.914;2022-12-29T04:19:14;102365.88;;;2.81;70.01
63204;BME280;49297;43.210;27.914;2022-12-29T04:21:39;102364.94;;;2.84;70.24
63204;BME280;49297;43.210;27.914;2022-12-29T04:24:06;102371.75;;;2.90;69.95
63204;BME280;49297;43.210;27.914;2022-12-29T04:26:32;102363.69;;;2.96;69.99
63204;BME280;49297;43.210;27.914;2022-12-29T04:28:58;102372.44;;;2.96;69.88
63204;BME280;49297;43.210;27.914;2022-12-29T04:31:24;102374.91;;;2.99;69.84
63204;BME280;49297;43.210;27.914;2022-12-29T04:33:50;102371.38;;;3.02;70.34
63204;BME280;49297;43.210;27.914;2022-12-29T04:36:15;102373.91;;;3.05;69.71
63204;BME280;49297;43.210;27.914;2022-12-29T04:38:41;102371.13;;;3.10;69.98
63204;BME280;49297;43.210;27.914;2022-12-29T04:41:07;102366.56;;;3.16;70.17
63204;BME280;49297;43.210;27.914;2022-12-29T04:43:33;102369.88;;;3.21;69.96
63204;BME280;49297;43.210;27.914;2022-12-29T04:45:59;102366.25;;;3.26;70.06
63204;BME280;49297;43.210;27.914;2022-12-29T04:48:24;102374.94;;;3.26;69.93
63204;BME280;49297;43.210;27.914;2022-12-29T04:50:50;102379.44;;;3.22;69.55
63204;BME280;49297;43.210;27.914;2022-12-29T04:53:17;102380.34;;;3.21;69.57
63204;BME280;49297;43.210;27.914;2022-12-29T04:55:43;102376.88;;;3.21;69.47
63204;BME280;49297;43.210;27.914;2022-12-29T04:58:09;102375.03;;;3.24;69.82
63204;BME280;49297;43.210;27.914;2022-12-29T05:00:35;102380.25;;;3.24;70.09
63204;BME280;49297;43.210;27.914;2022-12-29T05:03:02;102375.13;;;3.21;70.09
63204;BME280;49297;43.210;27.914;2022-12-29T05:05:27;102381.38;;;3.17;69.77
63204;BME280;49297;43.210;27.914;2022-12-29T05:07:53;102379.72;;;3.13;70.13
63204;BME280;49297;43.210;27.914;2022-12-29T05:10:19;102378.88;;;3.13;70.15
63204;BME280;49297;43.210;27.914;2022-12-29T05:12:45;102376.16;;;3.16;70.24
63204;BME280;49297;43.210;27.914;2022-12-29T05:15:11;102379.63;;;3.16;70.43
63204;BME280;49297;43.210;27.914;2022-12-29T05:17:36;102377.72;;;3.21;70.37
63204;BME280;49297;43.210;27.914;2022-12-29T05:20:04;102368.00;;;3.25;70.62
63204;BME280;49297;43.210;27.914;2022-12-29T05:22:30;102370.47;;;3.30;70.85
63204;BME280;49297;43.210;27.914;2022-12-29T05:24:56;102365.09;;;3.34;70.60
63204;BME280;49297;43.210;27.914;2022-12-29T05:27:21;102371.88;;;3.40;70.54
63204;BME280;49297;43.210;27.914;2022-12-29T05:29:47;102367.34;;;3.45;70.29
63204;BME280;49297;43.210;27.914;2022-12-29T05:32:13;102361.16;;;3.48;70.71
63204;BME280;49297;43.210;27.914;2022-12-29T05:34:39;102368.84;;;3.52;70.33
63204;BME280;49297;43.210;27.914;2022-12-29T05:37:05;102363.53;;;3.55;70.06
63204;BME280;49297;43.210;27.914;2022-12-29T05:39:30;102366.94;;;3.57;70.17
63204;BME280;49297;43.210;27.914;2022-12-29T05:41:56;102375.59;;;3.59;69.96
63204;BME280;49297;43.210;27.914;2022-12-29T05:44:22;102372.88;;;3.62;69.81
63204;BME280;49297;43.210;27.914;2022-12-29T05:46:48;102366.72;;;3.63;69.94
63204;BME280;49297;43.210;27.914;2022-12-29T05:49:14;102371.06;;;3.65;70.24
63204;BME280;49297;43.210;27.914;2022-12-29T05:51:39;102368.34;;;3.68;70.13
63204;BME280;49297;43.210;27.914;2022-12-29T05:54:05;102377.06;;;3.68;70.34
63204;BME280;49297;43.210;27.914;2022-12-29T05:56:31;102376.16;;;3.69;69.40
63204;BME280;49297;43.210;27.914;2022-12-29T05:58:57;102374.34;;;3.71;69.74
63204;BME280;49297;43.210;27.914;2022-12-29T06:01:23;102374.25;;;3.74;70.22
63204;BME280;49297;43.210;27.914;2022-12-29T06:03:48;102375.97;;;3.74;69.62
63204;BME280;49297;43.210;27.914;2022-12-29T06:06:14;102378.59;;;3.74;70.02
63204;BME280;49297;43.210;27.914;2022-12-29T06:08:40;102383.75;;;3.77;70.01
63204;BME280;49297;43.210;27.914;2022-12-29T06:11:06;102380.16;;;3.79;70.30
63204;BME280;49297;43.210;27.914;2022-12-29T06:13:31;102387.00;;;3.84;70.35
63204;BME280;49297;43.210;27.914;2022-12-29T06:15:57;102372.84;;;3.89;69.93
63204;BME280;49297;43.210;27.914;2022-12-29T06:18:23;102381.41;;;3.94;70.26
63204;BME280;49297;43.210;27.914;2022-12-29T06:20:48;102378.59;;;3.99;70.25
63204;BME280;49297;43.210;27.914;2022-12-29T06:23:15;102379.25;;;4.06;70.40
63204;BME280;49297;43.210;27.914;2022-12-29T06:25:41;102374.69;;;4.11;69.74
63204;BME280;49297;43.210;27.914;2022-12-29T06:28:07;102374.63;;;4.12;70.11
63204;BME280;49297;43.210;27.914;2022-12-29T06:30:33;102381.41;;;4.18;69.79
63204;BME280;49297;43.210;27.914;2022-12-29T06:32:59;102378.66;;;4.23;69.91
63204;BME280;49297;43.210;27.914;2022-12-29T06:35:25;102379.31;;;4.28;69.85
63204;BME280;49297;43.210;27.914;2022-12-29T06:37:51;102384.34;;;4.34;70.01
63204;BME280;49297;43.210;27.914;2022-12-29T06:40:17;102383.25;;;4.39;69.83
63204;BME280;49297;43.210;27.914;2022-12-29T06:42:43;102390.09;;;4.44;69.50
63204;BME280;49297;43.210;27.914;2022-12-29T06:45:10;102382.84;;;4.50;69.39
63204;BME280;49297;43.210;27.914;2022-12-29T06:47:36;102385.25;;;4.56;69.67
63204;BME280;49297;43.210;27.914;2022-12-29T06:50:02;102378.88;;;4.64;69.38
63204;BME280;49297;43.210;27.914;2022-12-29T06:52:28;102372.41;;;4.72;69.32
63204;BME280;49297;43.210;27.914;2022-12-29T06:54:55;102373.94;;;4.78;69.27
63204;BME280;49297;43.210;27.914;2022-12-29T06:57:21;102367.59;;;4.84;69.10
63204;BME280;49297;43.210;27.914;2022-12-29T06:59:47;102358.50;;;4.92;68.95
63204;BME280;49297;43.210;27.914;2022-12-29T07:02:13;102365.16;;;5.01;69.64
63204;BME280;49297;43.210;27.914;2022-12-29T07:04:40;102364.66;;;5.13;69.58
63204;BME280;49297;43.210;27.914;2022-12-29T07:07:06;102359.88;;;5.23;68.94
63204;BME280;49297;43.210;27.914;2022-12-29T07:09:32;102369.03;;;5.35;69.51
63204;BME280;49297;43.210;27.914;2022-12-29T07:11:58;102368.59;;;5.46;69.25
63204;BME280;49297;43.210;27.914;2022-12-29T07:14:24;102366.34;;;5.57;69.90
63204;BME280;49297;43.210;27.914;2022-12-29T07:16:50;102364.06;;;5.70;69.67
63204;BME280;49297;43.210;27.914;2022-12-29T07:19:16;102362.63;;;5.83;69.53
63204;BME280;49297;43.210;27.914;2022-12-29T07:21:41;102366.38;;;5.98;69.97
63204;BME280;49297;43.210;27.914;2022-12-29T07:24:12;102361.47;;;6.09;70.06
63204;BME280;49297;43.210;27.914;2022-12-29T07:26:38;102365.34;;;6.21;69.78
63204;BME280;49297;43.210;27.914;2022-12-29T07:29:05;102369.16;;;6.35;70.18
63204;BME280;49297;43.210;27.914;2022-12-29T07:31:31;102359.75;;;6.48;69.60
63204;BME280;49297;43.210;27.914;2022-12-29T07:33:58;102365.38;;;6.59;69.29
63204;BME280;49297;43.210;27.914;2022-12-29T07:36:24;102360.47;;;6.71;69.43
63204;BME280;49297;43.210;27.914;2022-12-29T07:38:50;102366.06;;;6.82;68.91
63204;BME280;49297;43.210;27.914;2022-12-29T07:41:16;102371.66;;;6.93;68.73
63204;BME280;49297;43.210;27.914;2022-12-29T07:43:42;102371.16;;;7.04;69.12
63204;BME280;49297;43.210;27.914;2022-12-29T07:46:07;102369.78;;;7.14;68.45
63204;BME280;49297;43.210;27.914;2022-12-29T07:48:36;102369.19;;;7.27;68.33
63204;BME280;49297;43.210;27.914;2022-12-29T07:51:02;102371.28;;;7.37;67.77
63204;BME280;49297;43.210;27.914;2022-12-29T07:53:27;102367.34;;;7.46;67.54
63204;BME280;49297;43.210;27.914;2022-12-29T07:55:54;102366.03;;;7.55;67.39
63204;BME280;49297;43.210;27.914;2022-12-29T07:58:20;102365.63;;;7.62;67.15
63204;BME280;49297;43.210;27.914;2022-12-29T08:00:46;102366.94;;;7.71;66.71
63204;BME280;49297;43.210;27.914;2022-12-29T08:03:12;102356.03;;;7.79;66.09
63204;BME280;49297;43.210;27.914;2022-12-29T08:05:37;102361.88;;;7.84;66.57
63204;BME280;49297;43.210;27.914;2022-12-29T08:08:04;102364.38;;;7.87;65.61
63204;BME280;49297;43.210;27.914;2022-12-29T08:10:30;102367.63;;;7.92;66.08
63204;BME280;49297;43.210;27.914;2022-12-29T08:12:56;102373.50;;;7.97;65.83
63204;BME280;49297;43.210;27.914;2022-12-29T08:15:23;102359.34;;;8.16;65.70
63204;BME280;49297;43.210;27.914;2022-12-29T08:17:49;102369.31;;;8.27;66.34
63204;BME280;49297;43.210;27.914;2022-12-29T08:20:15;102367.97;;;8.35;65.35
63204;BME280;49297;43.210;27.914;2022-12-29T08:22:41;102366.78;;;8.41;65.41
63204;BME280;49297;43.210;27.914;2022-12-29T08:25:08;102373.72;;;8.44;64.88
63204;BME280;49297;43.210;27.914;2022-12-29T08:27:34;102365.66;;;8.47;64.43
63204;BME280;49297;43.210;27.914;2022-12-29T08:30:00;102371.00;;;8.45;64.12
63204;BME280;49297;43.210;27.914;2022-12-29T08:32:27;102372.78;;;8.45;64.06
63204;BME280;49297;43.210;27.914;2022-12-29T08:34:54;102365.72;;;8.45;64.14
63204;BME280;49297;43.210;27.914;2022-12-29T08:37:22;102356.94;;;8.45;63.33
63204;BME280;49297;43.210;27.914;2022-12-29T08:39:48;102356.78;;;8.48;63.56
63204;BME280;49297;43.210;27.914;2022-12-29T08:42:14;102360.94;;;8.52;63.31
63204;BME280;49297;43.210;27.914;2022-12-29T08:44:39;102345.78;;;8.55;63.18
63204;BME280;49297;43.210;27.914;2022-12-29T08:47:05;102343.81;;;8.59;63.03
63204;BME280;49297;43.210;27.914;2022-12-29T08:49:31;102346.38;;;8.61;63.30
63204;BME280;49297;43.210;27.914;2022-12-29T08:51:59;102343.50;;;8.65;63.43
63204;BME280;49297;43.210;27.914;2022-12-29T08:54:25;102343.34;;;8.68;62.84
63204;BME280;49297;43.210;27.914;2022-12-29T08:56:51;102337.97;;;8.70;62.83
63204;BME280;49297;43.210;27.914;2022-12-29T08:59:17;102346.75;;;8.70;62.44
63204;BME280;49297;43.210;27.914;2022-12-29T09:01:43;102336.25;;;8.69;62.95
63204;BME280;49297;43.210;27.914;2022-12-29T09:04:09;102335.06;;;8.74;62.72
63204;BME280;49297;43.210;27.914;2022-12-29T09:06:35;102334.75;;;8.81;63.50
63204;BME280;49297;43.210;27.914;2022-12-29T09:09:01;102333.53;;;8.86;62.70
63204;BME280;49297;43.210;27.914;2022-12-29T09:11:27;102335.81;;;8.92;63.32
63204;BME280;49297;43.210;27.914;2022-12-29T09:13:53;102327.72;;;8.95;62.20
63204;BME280;49297;43.210;27.914;2022-12-29T09:16:22;102329.31;;;8.98;62.24
63204;BME280;49297;43.210;27.914;2022-12-29T09:18:48;102325.59;;;9.02;61.96
63204;BME280;49297;43.210;27.914;2022-12-29T09:21:14;102327.19;;;9.05;62.15
63204;BME280;49297;43.210;27.914;2022-12-29T09:23:40;102325.13;;;9.10;62.11
63204;BME280;49297;43.210;27.914;2022-12-29T09:26:07;102319.75;;;9.11;62.66
63204;BME280;49297;43.210;27.914;2022-12-29T09:28:33;102317.63;;;9.18;62.16
63204;BME280;49297;43.210;27.914;2022-12-29T09:31:00;102318.84;;;9.27;61.91
63204;BME280;49297;43.210;27.914;2022-12-29T09:33:27;102321.22;;;9.31;61.72
63204;BME280;49297;43.210;27.914;2022-12-29T09:35:56;102326.44;;;9.33;61.38
63204;BME280;49297;43.210;27.914;2022-12-29T09:38:23;102316.03;;;9.30;61.73
63204;BME280;49297;43.210;27.914;2022-12-29T09:40:52;102321.41;;;9.28;61.27
63204;BME280;49297;43.210;27.914;2022-12-29T09:46:28;102308.69;;;9.35;61.37
63204;BME280;49297;43.210;27.914;2022-12-29T09:49:19;102302.94;;;9.43;61.01
63204;BME280;49297;43.210;27.914;2022-12-29T09:51:51;102298.22;;;9.48;61.25
63204;BME280;49297;43.210;27.914;2022-12-29T09:54:41;102294.66;;;9.49;60.43
63204;BME280;49297;43.210;27.914;2022-12-29T09:57:16;102288.22;;;9.53;60.77
63204;BME280;49297;43.210;27.914;2022-12-29T09:59:45;102289.84;;;9.56;60.08
63204;BME280;49297;43.210;27.914;2022-12-29T10:04:57;102286.72;;;9.63;60.73
63204;BME280;49297;43.210;27.914;2022-12-29T10:07:36;102282.03;;;9.68;60.48
63204;BME280;49297;43.210;27.914;2022-12-29T10:13:28;102268.03;;;9.81;59.81
63204;BME280;49297;43.210;27.914;2022-12-29T10:15:58;102262.53;;;9.84;60.09
63204;BME280;49297;43.210;27.914;2022-12-29T10:18:32;102268.31;;;9.90;59.54
63204;BME280;49297;43.210;27.914;2022-12-29T10:21:23;102262.84;;;9.94;59.38
63204;BME280;49297;43.210;27.914;2022-12-29T10:23:52;102255.00;;;9.92;59.77
63204;BME280;49297;43.210;27.914;2022-12-29T10:26:21;102255.75;;;9.94;59.37
63204;BME280;49297;43.210;27.914;2022-12-29T10:29:22;102249.34;;;9.98;59.92
63204;BME280;49297;43.210;27.914;2022-12-29T10:32:02;102248.28;;;10.01;59.95
63204;BME280;49297;43.210;27.914;2022-12-29T10:34:36;102246.28;;;10.04;59.73
63204;BME280;49297;43.210;27.914;2022-12-29T10:39:49;102230.88;;;10.11;59.02
63204;BME280;49297;43.210;27.914;2022-12-29T10:42:35;102235.75;;;10.17;59.19
63204;BME280;49297;43.210;27.914;2022-12-29T10:45:04;102236.97;;;10.26;59.01
63204;BME280;49297;43.210;27.914;2022-12-29T10:47:38;102242.88;;;10.31;59.04
63204;BME280;49297;43.210;27.914;2022-12-29T10:50:12;102234.50;;;10.37;58.87
63204;BME280;49297;43.210;27.914;2022-12-29T10:52:38;102229.75;;;10.42;58.91
63204;BME280;49297;43.210;27.914;2022-12-29T10:55:15;102230.41;;;10.46;58.91
63204;BME280;49297;43.210;27.914;2022-12-29T10:57:45;102230.88;;;10.53;58.46
63204;BME280;49297;43.210;27.914;2022-12-29T11:00:19;102233.34;;;10.56;58.70
63204;BME280;49297;43.210;27.914;2022-12-29T11:05:41;102220.41;;;10.64;58.54
63204;BME280;49297;43.210;27.914;2022-12-29T11:08:19;102223.59;;;10.69;59.03
63204;BME280;49297;43.210;27.914;2022-12-29T11:10:58;102222.47;;;10.73;58.45
63204;BME280;49297;43.210;27.914;2022-12-29T11:13:27;102218.66;;;10.77;58.86
63204;BME280;49297;43.210;27.914;2022-12-29T11:15:53;102221.84;;;10.82;58.84
63204;BME280;49297;43.210;27.914;2022-12-29T11:18:30;102218.78;;;10.89;58.91
63204;BME280;49297;43.210;27.914;2022-12-29T11:20:59;102226.44;;;10.93;59.05
63204;BME280;49297;43.210;27.914;2022-12-29T11:23:37;102217.41;;;10.96;59.35
63204;BME280;49297;43.210;27.914;2022-12-29T11:26:24;102210.00;;;11.01;59.53
63204;BME280;49297;43.210;27.914;2022-12-29T11:31:53;102202.25;;;10.98;60.47
63204;BME280;49297;43.210;27.914;2022-12-29T11:34:57;102208.81;;;10.92;60.59
63204;BME280;49297;43.210;27.914;2022-12-29T11:37:37;102203.44;;;10.94;60.59
63204;BME280;49297;43.210;27.914;2022-12-29T11:40:19;102206.72;;;10.97;60.95
63204;BME280;49297;43.210;27.914;2022-12-29T11:43:05;102199.59;;;10.98;61.30
63204;BME280;49297;43.210;27.914;2022-12-29T11:45:34;102203.44;;;10.94;61.61
63204;BME280;49297;43.210;27.914;2022-12-29T11:48:18;102204.16;;;10.96;61.88
63204;BME280;49297;43.210;27.914;2022-12-29T11:50:52;102195.28;;;10.97;62.12
63204;BME280;49297;43.210;27.914;2022-12-29T11:53:22;102204.81;;;10.99;62.33
63204;BME280;49297;43.210;27.914;2022-12-29T11:56:01;102203.13;;;10.98;62.25
63204;BME280;49297;43.210;27.914;2022-12-29T11:58:29;102199.41;;;10.88;63.14
63204;BME280;49297;43.210;27.914;2022-12-29T12:01:43;102206.06;;;10.81;63.97
63204;BME280;49297;43.210;27.914;2022-12-29T12:04:01;102199.66;;;10.58;66.17
63204;BME280;49297;43.210;27.914;2022-12-29T12:06:29;102187.34;;;10.57;66.04
63204;BME280;49297;43.210;27.914;2022-12-29T12:09:06;102189.69;;;10.61;65.59
63204;BME280;49297;43.210;27.914;2022-12-29T12:11:40;102180.59;;;10.65;65.55
63204;BME280;49297;43.210;27.914;2022-12-29T12:14:23;102177.94;;;10.65;65.63
63204;BME280;49297;43.210;27.914;2022-12-29T12:17:05;102181.56;;;10.64;65.37
63204;BME280;49297;43.210;27.914;2022-12-29T12:20:04;102179.94;;;10.62;65.58
63204;BME280;49297;43.210;27.914;2022-12-29T12:22:37;102179.94;;;10.62;65.92
63204;BME280;49297;43.210;27.914;2022-12-29T12:25:16;102174.09;;;10.57;65.63
63204;BME280;49297;43.210;27.914;2022-12-29T12:28:06;102167.22;;;10.54;65.31
63204;BME280;49297;43.210;27.914;2022-12-29T12:30:40;102163.94;;;10.51;65.92
63204;BME280;49297;43.210;27.914;2022-12-29T12:33:28;102167.50;;;10.50;65.87
63204;BME280;49297;43.210;27.914;2022-12-29T12:38:57;102166.69;;;10.49;65.43
63204;BME280;49297;43.210;27.914;2022-12-29T12:42:04;102171.22;;;10.47;65.18
63204;BME280;49297;43.210;27.914;2022-12-29T12:47:25;102171.63;;;10.41;65.65
63204;BME280;49297;43.210;27.914;2022-12-29T13:12:13;102166.00;;;10.33;66.89
63204;BME280;49297;43.210;27.914;2022-12-29T13:17:57;102165.50;;;10.26;67.41
63204;BME280;49297;43.210;27.914;2022-12-29T13:28:55;102175.00;;;10.16;68.21
63204;BME280;49297;43.210;27.914;2022-12-29T13:31:33;102168.09;;;10.13;68.12
63204;BME280;49297;43.210;27.914;2022-12-29T13:36:56;102174.66;;;10.07;69.14
63204;BME280;49297;43.210;27.914;2022-12-29T13:39:37;102179.28;;;10.04;68.64
63204;BME280;49297;43.210;27.914;2022-12-29T13:42:05;102174.28;;;9.99;69.56
63204;BME280;49297;43.210;27.914;2022-12-29T13:44:55;102174.47;;;9.96;69.62
63204;BME280;49297;43.210;27.914;2022-12-29T13:48:05;102169.69;;;9.88;70.57
63204;BME280;49297;43.210;27.914;2022-12-29T13:50:34;102170.34;;;9.78;70.79
63204;BME280;49297;43.210;27.914;2022-12-29T13:53:19;102166.13;;;9.75;70.74
63204;BME280;49297;43.210;27.914;2022-12-29T13:55:58;102166.31;;;9.72;70.55
63204;BME280;49297;43.210;27.914;2022-12-29T13:58:39;102170.75;;;9.71;71.14
63204;BME280;49297;43.210;27.914;2022-12-29T14:01:18;102174.75;;;9.64;71.43
63204;BME280;49297;43.210;27.914;2022-12-29T14:04:14;102161.50;;;9.64;71.75
63204;BME280;49297;43.210;27.914;2022-12-29T14:07:13;102169.72;;;9.60;71.49
63204;BME280;49297;43.210;27.914;2022-12-29T14:09:49;102163.59;;;9.59;72.21
63204;BME280;49297;43.210;27.914;2022-12-29T14:12:38;102158.41;;;9.58;71.83
63204;BME280;49297;43.210;27.914;2022-12-29T14:15:14;102160.38;;;9.54;72.26
63204;BME280;49297;43.210;27.914;2022-12-29T14:18:02;102170.09;;;9.53;72.32
63204;BME280;49297;43.210;27.914;2022-12-29T14:20:29;102164.94;;;9.52;72.02
63204;BME280;49297;43.210;27.914;2022-12-29T14:22:59;102169.44;;;9.50;72.47
63204;BME280;49297;43.210;27.914;2022-12-29T14:25:59;102163.41;;;9.48;72.80
63204;BME280;49297;43.210;27.914;2022-12-29T14:28:28;102159.25;;;9.44;72.40
63204;BME280;49297;43.210;27.914;2022-12-29T14:30:56;102159.44;;;9.41;72.57
63204;BME280;49297;43.210;27.914;2022-12-29T14:33:24;102161.41;;;9.37;72.37
63204;BME280;49297;43.210;27.914;2022-12-29T14:35:53;102151.91;;;9.34;72.49
63204;BME280;49297;43.210;27.914;2022-12-29T14:38:22;102149.44;;;9.31;72.81
63204;BME280;49297;43.210;27.914;2022-12-29T14:40:49;102155.69;;;9.30;73.22
63204;BME280;49297;43.210;27.914;2022-12-29T14:43:25;102155.84;;;9.27;73.03
63204;BME280;49297;43.210;27.914;2022-12-29T14:45:55;102156.03;;;9.24;73.42